Time;durP1;ratioP1;P1;durP2;ratioP2;P2;SDS_P1;SDS_P2;PMS_P1;PMS_P2;Temp;Humidity;BMP_temperature;BMP_pressure;BME280_temperature;BME280_humidity;BME280_pressure;Samples;Min_cycle;Max_cycle;Signal;HPM_P1;HPM_P2
2023/05/13 00:01:37;;;;;;;5.00;4.60;;;16.60;52.90;;;;;;4941326;28;20138;-82
2023/05/13 00:04:05;;;;;;;6.07;5.07;;;16.50;52.70;;;;;;4932815;28;20121;-81
2023/05/13 00:06:32;;;;;;;5.63;5.13;;;16.50;52.80;;;;;;4953246;28;20042;-81
2023/05/13 00:08:58;;;;;;;5.45;4.95;;;16.50;52.80;;;;;;4935466;28;20035;-82
2023/05/13 00:11:24;;;;;;;6.25;5.65;;;16.50;52.80;;;;;;4954081;28;20023;-83
2023/05/13 00:13:50;;;;;;;6.32;5.05;;;16.50;52.90;;;;;;4955347;28;20027;-83
2023/05/13 00:16:16;;;;;;;6.18;5.57;;;16.40;52.70;;;;;;4954287;29;20031;-85
2023/05/13 00:18:42;;;;;;;5.07;4.68;;;16.40;52.80;;;;;;4967571;28;20042;-87
2023/05/13 00:21:08;;;;;;;5.90;5.40;;;16.40;52.80;;;;;;4967042;28;20067;-85
2023/05/13 00:23:34;;;;;;;6.22;5.70;;;16.40;52.90;;;;;;4951477;28;20082;-85
2023/05/13 00:26:00;;;;;;;6.05;5.50;;;16.40;53.00;;;;;;4927491;28;20051;-84
2023/05/13 00:28:26;;;;;;;5.93;5.32;;;16.30;52.80;;;;;;4936342;28;20134;-86
2023/05/13 00:30:52;;;;;;;5.63;5.13;;;16.30;52.90;;;;;;4942221;28;20043;-86
2023/05/13 00:33:18;;;;;;;6.40;5.57;;;16.30;52.90;;;;;;4945015;28;20032;-84
2023/05/13 00:35:44;;;;;;;6.40;5.80;;;16.30;53.00;;;;;;4927967;29;20122;-84
2023/05/13 00:38:10;;;;;;;6.78;5.43;;;16.30;53.00;;;;;;4953313;28;20046;-84
2023/05/13 00:40:38;;;;;;;6.63;6.13;;;16.20;52.90;;;;;;4937747;28;20507;-83
2023/05/13 00:43:05;;;;;;;6.25;5.65;;;16.20;53.00;;;;;;4927106;28;20167;-85
2023/05/13 00:45:31;;;;;;;6.30;5.70;;;16.20;53.00;;;;;;4937753;28;20515;-84
2023/05/13 00:47:58;;;;;;;6.25;5.68;;;16.20;53.10;;;;;;4940786;28;20506;-84
2023/05/13 00:50:24;;;;;;;6.18;5.57;;;16.20;53.10;;;;;;4933603;28;20518;-84
2023/05/13 00:52:50;;;;;;;6.55;5.95;;;16.20;53.20;;;;;;4924514;28;20074;-85
2023/05/13 00:55:16;;;;;;;5.97;5.28;;;16.10;53.00;;;;;;4936573;28;20506;-85
2023/05/13 00:57:42;;;;;;;7.07;6.40;;;16.20;53.20;;;;;;4937259;28;20534;-84
2023/05/13 01:00:09;;;;;;;6.35;5.75;;;16.10;53.10;;;;;;4929597;28;20075;-84
2023/05/13 01:02:55;;;;;;;6.72;6.05;;;16.10;53.10;;;;;;4941276;28;20047;-84
2023/05/13 01:05:47;;;;;;;6.15;5.55;;;16.10;53.20;;;;;;4948119;28;20042;-83
2023/05/13 01:08:19;;;;;;;7.20;6.50;;;16.10;53.80;;;;;;4939523;28;20040;-84
2023/05/13 01:11:03;;;;;;;7.47;6.60;;;16.10;53.20;;;;;;4940538;28;20387;-84
2023/05/13 01:13:38;;;;;;;7.05;6.45;;;16.10;53.30;;;;;;4925880;28;20037;-83
2023/05/13 01:16:25;;;;;;;7.18;6.57;;;16.00;53.20;;;;;;4938872;28;20031;-83
2023/05/13 01:19:08;;;;;;;6.30;5.70;;;16.00;53.30;;;;;;4949486;28;20118;-83
2023/05/13 01:21:35;;;;;;;;;;;15.90;53.10;;;;;;4942153;28;20038;-84
2023/05/13 01:24:01;;;;;;;6.70;5.97;;;16.00;53.20;;;;;;4939573;28;20248;-83
2023/05/13 01:26:28;;;;;;;7.00;6.40;;;15.90;52.90;;;;;;4945754;28;20039;-86
2023/05/13 01:28:54;;;;;;;7.22;6.53;;;15.90;53.00;;;;;;4919972;29;20031;-85
2023/05/13 01:31:22;;;;;;;7.95;7.15;;;15.90;53.10;;;;;;4948268;28;20120;-84
2023/05/13 01:33:49;;;;;;;6.53;5.85;;;15.80;53.00;;;;;;4946439;28;20741;-84
2023/05/13 01:36:16;;;;;;;6.95;6.25;;;15.80;53.00;;;;;;4945453;28;20032;-85
2023/05/13 01:38:43;;;;;;;7.07;6.40;;;15.80;53.20;;;;;;4944914;28;20039;-83
2023/05/13 01:41:09;;;;;;;6.93;6.22;;;15.80;53.20;;;;;;4946530;28;20607;-85
2023/05/13 01:43:36;;;;;;;6.47;5.88;;;15.80;53.30;;;;;;4925095;29;20078;-86
2023/05/13 01:46:02;;;;;;;7.90;6.25;;;15.80;53.40;;;;;;4933879;28;20825;-83
2023/05/13 01:48:28;;;;;;;6.82;6.22;;;15.70;53.20;;;;;;4946835;28;20360;-83
2023/05/13 01:50:54;;;;;;;6.82;6.22;;;15.70;53.30;;;;;;4949727;28;20059;-83
2023/05/13 01:53:20;;;;;;;6.30;5.60;;;15.80;53.50;;;;;;4947798;29;20031;-83
2023/05/13 01:55:49;;;;;;;7.30;6.60;;;15.70;53.40;;;;;;4933459;29;20127;-82
2023/05/13 01:58:15;;;;;;;6.32;5.75;;;15.70;53.40;;;;;;4952692;28;20480;-84
2023/05/13 02:00:41;;;;;;;6.78;6.03;;;15.70;53.40;;;;;;4954611;28;20130;-84
2023/05/13 02:03:07;;;;;;;6.90;6.25;;;15.70;53.50;;;;;;4948874;28;20039;-83
2023/05/13 02:05:33;;;;;;;7.47;6.78;;;15.70;53.50;;;;;;4948762;28;20404;-85
2023/05/13 02:08:03;;;;;;;8.60;6.30;;;15.70;53.50;;;;;;4950758;28;20708;-85
2023/05/13 02:10:30;;;;;;;7.45;6.35;;;15.60;53.40;;;;;;4953756;28;20028;-84
2023/05/13 02:12:56;;;;;;;6.97;6.28;;;15.60;53.40;;;;;;4942549;29;20358;-85
2023/05/13 02:15:22;;;;;;;7.10;6.40;;;15.60;53.50;;;;;;4958342;28;20507;-87
2023/05/13 02:17:48;;;;;;;8.35;6.30;;;15.60;53.50;;;;;;4948873;29;20042;-85
2023/05/13 02:20:14;;;;;;;7.93;6.40;;;15.60;53.50;;;;;;4947801;28;20073;-85
2023/05/13 02:22:40;;;;;;;7.32;6.72;;;15.50;53.40;;;;;;4947980;28;20491;-85
2023/05/13 02:25:07;;;;;;;7.00;6.40;;;15.50;53.50;;;;;;4950709;28;20081;-84
2023/05/13 02:27:33;;;;;;;7.20;6.57;;;15.50;53.50;;;;;;4948542;28;20070;-81
2023/05/13 02:29:58;;;;;;;7.43;6.72;;;15.50;53.50;;;;;;4943506;28;20063;-78
2023/05/13 02:32:24;;;;;;;7.18;6.57;;;15.50;53.60;;;;;;4949807;28;20100;-78
2023/05/13 02:34:50;;;;;;;8.05;7.25;;;15.40;53.50;;;;;;4951728;28;20099;-79
2023/05/13 02:37:16;;;;;;;6.97;6.28;;;15.40;53.50;;;;;;4950085;28;20295;-80
2023/05/13 02:39:51;;;;;;;6.95;6.25;;;15.40;53.60;;;;;;4949582;28;20069;-81
2023/05/13 02:42:17;;;;;;;7.45;6.80;;;15.40;53.60;;;;;;4947198;28;20031;-82
2023/05/13 02:44:43;;;;;;;7.25;6.60;;;15.40;53.70;;;;;;4940184;28;20505;-82
2023/05/13 02:47:11;;;;;;;7.32;6.68;;;15.30;53.60;;;;;;4942943;28;20045;-82
2023/05/13 02:49:37;;;;;;;7.15;6.55;;;15.30;53.60;;;;;;4948656;28;20055;-82
2023/05/13 02:52:05;;;;;;;9.75;7.35;;;15.30;53.70;;;;;;4956622;28;20113;-81
2023/05/13 02:54:33;;;;;;;7.38;6.70;;;15.30;53.70;;;;;;4953736;28;20039;-84
2023/05/13 02:56:59;;;;;;;7.75;7.05;;;15.30;53.70;;;;;;4966427;28;20109;-84
2023/05/13 02:59:25;;;;;;;8.88;7.97;;;15.30;53.80;;;;;;4953636;28;20065;-82
2023/05/13 03:01:51;;;;;;;6.88;6.18;;;15.30;53.80;;;;;;4942438;28;20031;-83
2023/05/13 03:04:17;;;;;;;8.20;7.40;;;15.20;53.60;;;;;;4947919;28;20036;-82
2023/05/13 03:06:42;;;;;;;6.90;6.07;;;15.20;53.70;;;;;;4948236;29;20130;-83
2023/05/13 03:09:08;;;;;;;8.07;7.38;;;15.20;53.70;;;;;;4949550;28;20114;-83
2023/05/13 03:11:34;;;;;;;7.78;7.00;;;15.20;53.70;;;;;;4946872;28;20495;-83
2023/05/13 03:14:00;;;;;;;6.80;6.20;;;15.10;53.60;;;;;;4937169;28;20091;-83
2023/05/13 03:16:26;;;;;;;7.95;6.85;;;15.10;53.60;;;;;;4946120;29;20063;-83
2023/05/13 03:18:52;;;;;;;7.93;7.13;;;15.10;53.60;;;;;;4946846;28;20075;-83
2023/05/13 03:21:18;;;;;;;7.45;6.75;;;15.10;53.70;;;;;;4931730;29;20049;-82
2023/05/13 03:23:45;;;;;;;7.97;7.20;;;15.10;53.80;;;;;;4946647;28;20275;-82
2023/05/13 03:26:11;;;;;;;7.47;6.78;;;15.00;53.60;;;;;;4932069;29;20110;-82
2023/05/13 03:28:36;;;;;;;7.75;7.00;;;15.00;53.60;;;;;;4946513;28;20035;-83
2023/05/13 03:31:03;;;;;;;7.05;6.45;;;15.00;53.70;;;;;;4938605;28;20047;-81
2023/05/13 03:33:32;;;;;;;6.72;6.10;;;15.00;53.70;;;;;;4951775;28;20070;-83
2023/05/13 03:35:58;;;;;;;7.38;6.72;;;15.00;53.80;;;;;;4947486;28;20118;-83
2023/05/13 03:38:30;;;;;;;7.30;6.60;;;15.00;53.80;;;;;;4943518;28;20027;-83
2023/05/13 03:40:56;;;;;;;7.53;6.82;;;15.00;53.80;;;;;;4946127;28;20036;-83
2023/05/13 03:43:22;;;;;;;7.07;6.38;;;15.00;53.80;;;;;;4936534;28;20075;-85
2023/05/13 03:45:53;;;;;;;7.35;6.65;;;15.00;53.80;;;;;;4944030;28;20359;-84
2023/05/13 03:48:21;;;;;;;9.65;7.10;;;14.90;53.70;;;;;;4940465;28;20122;-85
2023/05/13 03:50:47;;;;;;;7.47;6.78;;;15.00;53.90;;;;;;4942668;28;20031;-87
2023/05/13 03:53:15;;;;;;;9.23;7.53;;;14.90;53.70;;;;;;4955885;28;20336;-84
2023/05/13 03:55:42;;;;;;;7.85;6.90;;;14.90;53.80;;;;;;4929464;29;20084;-83
2023/05/13 03:58:17;;;;;;;7.53;6.82;;;14.90;53.80;;;;;;4945489;28;20031;-81
2023/05/13 04:00:47;;;;;;;7.70;6.45;;;14.90;53.80;;;;;;4945838;28;20074;-89
2023/05/13 04:03:17;;;;;;;7.38;6.68;;;14.90;53.80;;;;;;4941206;28;20031;-82
2023/05/13 04:05:47;;;;;;;8.75;7.28;;;14.90;53.80;;;;;;4940753;28;20069;-83
2023/05/13 04:08:13;;;;;;;7.18;6.53;;;14.90;53.90;;;;;;4945173;28;20147;-83
2023/05/13 04:10:39;;;;;;;7.93;7.13;;;14.80;53.70;;;;;;4942783;28;20066;-85
2023/05/13 04:13:06;;;;;;;7.55;6.85;;;14.80;54.30;;;;;;4944600;28;20082;-83
2023/05/13 04:15:32;;;;;;;7.90;7.20;;;14.80;53.70;;;;;;4945272;28;20372;-84
2023/05/13 04:17:58;;;;;;;6.88;6.28;;;14.80;53.80;;;;;;4928240;29;20115;-84
2023/05/13 04:20:24;;;;;;;8.32;6.80;;;14.80;53.80;;;;;;4940659;28;20078;-83
2023/05/13 04:22:50;;;;;;;8.27;7.40;;;14.80;53.80;;;;;;4945333;28;20027;-83
2023/05/13 04:25:17;;;;;;;9.02;7.80;;;14.80;53.80;;;;;;4942870;28;20522;-82
2023/05/13 04:27:43;;;;;;;7.93;7.15;;;14.80;53.90;;;;;;4943274;28;20143;-80
2023/05/13 04:30:15;;;;;;;7.50;6.70;;;14.80;53.90;;;;;;4939075;28;20050;-81
2023/05/13 04:32:42;;;;;;;8.23;7.43;;;14.70;53.70;;;;;;4947793;28;20035;-81
2023/05/13 04:35:09;;;;;;;7.22;6.63;;;14.80;54.00;;;;;;4956822;28;20035;-83
2023/05/13 04:37:36;;;;;;;7.72;6.88;;;14.80;54.00;;;;;;4953489;29;20032;-82
2023/05/13 04:40:06;;;;;;;7.28;6.57;;;14.70;53.80;;;;;;4965786;28;20046;-83
2023/05/13 04:42:33;;;;;;;7.05;6.35;;;14.70;53.80;;;;;;4969355;28;20034;-82
2023/05/13 04:45:00;;;;;;;7.70;6.72;;;14.70;53.80;;;;;;4969987;28;20039;-81
2023/05/13 04:47:26;;;;;;;8.20;7.40;;;14.70;53.90;;;;;;4963937;28;20054;-81
2023/05/13 04:49:52;;;;;;;8.27;7.50;;;14.70;53.90;;;;;;4944882;28;20534;-81
2023/05/13 04:52:18;;;;;;;8.85;7.18;;;14.60;53.70;;;;;;4940669;28;20407;-82
2023/05/13 04:54:44;;;;;;;7.88;7.00;;;14.70;54.00;;;;;;4945904;28;20313;-81
2023/05/13 04:57:10;;;;;;;8.27;7.53;;;14.60;53.80;;;;;;4941533;29;20043;-81
2023/05/13 04:59:36;;;;;;;7.28;6.57;;;14.60;53.90;;;;;;4944222;28;20178;-83
2023/05/13 05:02:02;;;;;;;7.85;7.05;;;14.60;53.90;;;;;;4931903;29;20042;-81
2023/05/13 05:04:28;;;;;;;7.68;7.03;;;14.60;53.90;;;;;;4939193;28;20377;-80
2023/05/13 05:06:55;;;;;;;7.80;7.05;;;14.60;53.90;;;;;;4941132;28;20031;-80
2023/05/13 05:09:21;;;;;;;8.10;7.40;;;14.60;53.90;;;;;;4946238;28;20401;-80
2023/05/13 05:11:50;;;;;;;9.02;8.15;;;14.60;53.90;;;;;;4943112;28;20030;-80
2023/05/13 05:14:17;;;;;;;7.63;6.82;;;14.60;53.90;;;;;;4943029;28;20057;-85
2023/05/13 05:16:44;;;;;;;7.63;6.93;;;14.60;53.90;;;;;;4943659;28;20043;-83
2023/05/13 05:19:12;;;;;;;8.98;7.43;;;14.60;53.90;;;;;;4939755;28;20511;-84
2023/05/13 05:21:38;;;;;;;7.85;7.05;;;14.60;53.90;;;;;;4940291;28;20442;-87
2023/05/13 05:24:05;;;;;;;8.32;7.50;;;14.60;53.90;;;;;;4942967;28;20417;-84
2023/05/13 05:26:30;;;;;;;7.85;7.05;;;14.60;53.90;;;;;;4942062;28;20038;-85
2023/05/13 05:28:56;;;;;;;8.18;7.00;;;14.60;53.90;;;;;;4937477;28;20348;-84
2023/05/13 05:31:22;;;;;;;7.32;6.63;;;14.60;53.90;;;;;;4941730;28;20122;-84
2023/05/13 05:33:50;;;;;;;7.60;6.85;;;14.70;54.60;;;;;;4943231;28;20023;-85
2023/05/13 05:36:16;;;;;;;8.00;7.20;;;14.70;54.00;;;;;;4942229;28;20625;-85
2023/05/13 05:38:42;;;;;;;7.35;6.65;;;14.70;54.00;;;;;;4939885;28;20126;-84
2023/05/13 05:41:09;;;;;;;7.85;7.05;;;14.70;53.90;;;;;;4941887;28;20449;-84
2023/05/13 05:43:35;;;;;;;7.32;6.63;;;14.80;54.00;;;;;;4937993;28;20126;-84
2023/05/13 05:46:01;;;;;;;7.82;7.07;;;14.80;54.00;;;;;;4941010;28;20051;-86
2023/05/13 05:48:27;;;;;;;8.27;7.40;;;14.80;53.80;;;;;;4937611;28;20360;-83
2023/05/13 05:50:55;;;;;;;7.63;6.93;;;14.90;54.00;;;;;;4937832;28;20046;-88
2023/05/13 05:53:26;;;;;;;10.63;7.05;;;14.90;53.90;;;;;;4940507;28;20318;-83
2023/05/13 05:55:53;;;;;;;7.85;7.15;;;14.80;53.60;;;;;;4941173;28;20059;-84
2023/05/13 05:58:19;;;;;;;8.35;7.47;;;14.90;53.80;;;;;;4941887;28;20693;-83
2023/05/13 06:00:45;;;;;;;7.47;6.78;;;14.90;53.80;;;;;;4936493;28;20045;-82
2023/05/13 06:03:11;;;;;;;8.48;7.63;;;14.90;53.80;;;;;;4940031;28;20206;-84
2023/05/13 06:05:38;;;;;;;8.57;7.80;;;14.90;53.80;;;;;;4945412;28;20039;-89
2023/05/13 06:08:04;;;;;;;7.70;7.00;;;14.90;53.80;;;;;;4931059;28;20109;-85
2023/05/13 06:10:30;;;;;;;8.23;7.43;;;14.90;53.70;;;;;;4946595;28;20038;-84
2023/05/13 06:12:57;;;;;;;7.88;6.70;;;14.90;53.70;;;;;;4932503;28;20376;-85
2023/05/13 06:15:23;;;;;;;7.85;6.50;;;15.00;53.80;;;;;;4947179;28;20322;-87
2023/05/13 06:17:48;;;;;;;7.85;7.15;;;14.90;53.80;;;;;;4936213;28;20067;-86
2023/05/13 06:20:14;;;;;;;11.93;8.18;;;15.00;54.60;;;;;;4935079;28;20039;-83
2023/05/13 06:22:40;;;;;;;8.43;7.55;;;15.10;55.10;;;;;;4942159;28;20042;-85
2023/05/13 06:25:07;;;;;;;9.20;7.00;;;15.10;55.30;;;;;;4935468;28;20039;-81
2023/05/13 06:27:32;;;;;;;10.63;8.52;;;15.20;55.70;;;;;;4937676;28;20123;-82
2023/05/13 06:29:59;;;;;;;9.57;8.50;;;15.20;55.90;;;;;;4932466;28;20042;-82
2023/05/13 06:32:25;;;;;;;7.93;7.22;;;15.30;56.30;;;;;;4940272;28;20247;-82
2023/05/13 06:34:51;;;;;;;9.27;8.38;;;15.30;56.50;;;;;;4937873;28;20032;-82
2023/05/13 06:37:18;;;;;;;8.32;7.53;;;15.40;56.90;;;;;;4933996;28;20114;-83
2023/05/13 06:39:45;;;;;;;8.55;7.72;;;15.50;57.30;;;;;;4934016;28;20569;-83
2023/05/13 06:42:11;;;;;;;11.15;8.05;;;15.60;57.70;;;;;;4936183;28;20283;-85
2023/05/13 06:44:43;;;;;;;10.25;8.32;;;15.60;57.70;;;;;;4932022;28;20202;-87
2023/05/13 06:47:13;;;;;;;9.07;7.43;;;15.70;57.90;;;;;;4935704;28;20530;-83
2023/05/13 06:49:39;;;;;;;8.65;7.85;;;15.70;58.00;;;;;;4953289;28;20636;-84
2023/05/13 06:52:07;;;;;;;10.75;8.32;;;15.80;58.00;;;;;;4941444;28;20137;-80
2023/05/13 06:54:33;;;;;;;7.90;7.07;;;15.90;58.20;;;;;;4941295;28;20077;-80
2023/05/13 06:56:59;;;;;;;10.95;7.50;;;16.00;58.40;;;;;;4934630;28;20402;-78
2023/05/13 06:59:25;;;;;;;7.97;7.22;;;16.10;58.70;;;;;;4932314;28;20050;-88
2023/05/13 07:01:51;;;;;;;9.85;7.60;;;16.20;58.90;;;;;;4937565;28;20035;-87
2023/05/13 07:04:17;;;;;;;9.88;7.63;;;16.20;58.70;;;;;;4924095;28;20111;-86
2023/05/13 07:06:43;;;;;;;8.48;7.70;;;16.40;58.80;;;;;;4936520;28;20035;-87
2023/05/13 07:09:12;;;;;;;8.20;7.20;;;16.40;58.50;;;;;;4935293;28;20050;-86
2023/05/13 07:11:38;;;;;;;8.18;7.40;;;16.40;58.20;;;;;;4935785;28;20512;-86
2023/05/13 07:14:04;;;;;;;9.68;8.40;;;16.40;57.90;;;;;;4931890;28;20038;-87
2023/05/13 07:16:30;;;;;;;9.48;8.30;;;16.40;57.80;;;;;;4932065;28;20115;-87
2023/05/13 07:18:56;;;;;;;8.73;7.60;;;16.40;57.50;;;;;;4933096;28;20040;-86
2023/05/13 07:21:22;;;;;;;8.90;8.02;;;16.30;57.20;;;;;;4938343;28;20054;-88
2023/05/13 07:23:48;;;;;;;7.75;7.15;;;16.40;57.20;;;;;;4931325;28;20027;-83
2023/05/13 07:26:14;;;;;;;8.80;7.97;;;16.40;57.00;;;;;;4939510;28;20035;-83
2023/05/13 07:28:40;;;;;;;10.95;7.63;;;16.40;56.90;;;;;;4928470;28;20039;-86
2023/05/13 07:31:06;;;;;;;9.23;8.43;;;16.40;56.70;;;;;;4939684;28;20101;-83
2023/05/13 07:33:32;;;;;;;8.25;7.45;;;16.40;56.50;;;;;;4941837;28;20553;-82
2023/05/13 07:35:58;;;;;;;8.38;7.57;;;16.50;56.50;;;;;;4938893;28;20143;-88
2023/05/13 07:38:24;;;;;;;8.00;7.30;;;16.50;56.30;;;;;;4934101;28;20096;-91
2023/05/13 07:40:50;;;;;;;8.70;7.82;;;16.50;56.10;;;;;;4935382;28;20054;-93
2023/05/13 07:43:22;;;;;;;8.77;7.45;;;16.60;56.00;;;;;;4940530;28;20038;-93
2023/05/13 07:45:50;;;;;;;8.35;7.55;;;16.70;56.00;;;;;;4940683;28;20031;-84
2023/05/13 07:48:16;;;;;;;8.50;6.60;;;16.70;55.70;;;;;;4933089;28;20044;-85
2023/05/13 07:50:43;;;;;;;7.97;7.25;;;16.80;55.80;;;;;;4938954;28;20059;-84
2023/05/13 07:53:09;;;;;;;7.47;6.75;;;16.90;55.70;;;;;;4931801;28;20394;-83
2023/05/13 07:55:35;;;;;;;7.53;6.93;;;16.90;55.50;;;;;;4939593;28;20035;-85
2023/05/13 07:58:01;;;;;;;7.28;6.68;;;17.00;55.40;;;;;;4939624;28;20333;-83
2023/05/13 08:00:27;;;;;;;6.65;5.95;;;17.10;55.50;;;;;;4938525;28;20197;-88
2023/05/13 08:02:54;;;;;;;6.50;5.95;;;17.20;56.00;;;;;;4937542;28;20042;-87
2023/05/13 08:05:21;;;;;;;6.20;5.60;;;17.30;56.60;;;;;;4924644;28;20039;-84
2023/05/13 08:07:46;;;;;;;7.32;6.07;;;17.40;56.90;;;;;;4934070;28;20179;-83
2023/05/13 08:10:12;;;;;;;6.88;5.55;;;17.50;57.10;;;;;;4933845;28;20035;-83
2023/05/13 08:12:39;;;;;;;8.05;6.57;;;17.70;57.50;;;;;;4932337;28;20141;-83
2023/05/13 08:15:06;;;;;;;8.85;6.68;;;17.80;57.70;;;;;;4934772;28;20115;-85
2023/05/13 08:17:33;;;;;;;7.10;6.50;;;17.90;57.80;;;;;;4931610;28;20611;-85
2023/05/13 08:20:00;;;;;;;7.10;6.50;;;18.00;57.90;;;;;;4926377;28;20071;-85
2023/05/13 08:22:26;;;;;;;6.30;5.80;;;18.10;57.90;;;;;;4934608;28;20344;-88
2023/05/13 08:24:52;;;;;;;6.63;6.03;;;18.20;58.00;;;;;;4933226;28;20036;-81
2023/05/13 08:27:19;;;;;;;6.70;5.45;;;18.30;58.00;;;;;;4924792;28;20637;-86
2023/05/13 08:29:44;;;;;;;5.20;4.80;;;18.50;58.40;;;;;;4934513;28;20031;-86
2023/05/13 08:32:11;;;;;;;7.68;6.07;;;18.60;59.20;;;;;;4937670;28;20039;-87
2023/05/13 08:34:37;;;;;;;6.20;5.60;;;18.80;59.10;;;;;;4936008;28;20146;-80
2023/05/13 08:37:03;;;;;;;4.68;4.30;;;19.00;59.30;;;;;;4932094;28;20114;-83
2023/05/13 08:39:29;;;;;;;6.18;4.80;;;19.20;59.30;;;;;;4932941;28;20050;-85
2023/05/13 08:41:56;;;;;;;5.70;5.20;;;19.30;59.20;;;;;;4932099;28;20035;-85
2023/05/13 08:44:28;;;;;;;6.70;5.95;;;19.50;59.10;;;;;;4926254;28;20411;-83
2023/05/13 08:47:13;;;;;;;5.60;5.18;;;19.70;59.00;;;;;;4933056;28;20644;-81
2023/05/13 08:49:39;;;;;;;6.63;6.03;;;19.80;58.80;;;;;;4934550;28;20438;-84
2023/05/13 08:52:05;;;;;;;6.38;5.78;;;19.80;58.50;;;;;;4934020;28;20042;-83
2023/05/13 08:54:31;;;;;;;6.63;5.93;;;19.90;58.30;;;;;;4933685;28;20102;-83
2023/05/13 08:56:57;;;;;;;6.38;5.78;;;19.90;58.00;;;;;;4937390;28;20035;-84
2023/05/13 08:59:23;;;;;;;6.95;6.35;;;20.00;57.90;;;;;;4937673;28;20065;-83
2023/05/13 09:01:50;;;;;;;7.20;6.53;;;20.00;57.50;;;;;;4949189;28;20281;-84
2023/05/13 09:04:18;;;;;;;6.68;6.07;;;20.10;57.20;;;;;;4938759;28;20150;-86
2023/05/13 09:06:49;;;;;;;7.20;6.60;;;20.20;56.90;;;;;;4936367;28;20055;-86
2023/05/13 09:09:15;;;;;;;7.30;6.70;;;20.30;56.70;;;;;;4954584;28;20031;-85
2023/05/13 09:11:41;;;;;;;7.18;6.55;;;20.30;56.40;;;;;;4962949;28;20521;-85
2023/05/13 09:14:10;;;;;;;8.35;7.25;;;20.40;56.30;;;;;;4959572;28;20192;-85
2023/05/13 09:16:37;;;;;;;6.68;5.95;;;20.50;56.20;;;;;;4963747;28;20027;-86
2023/05/13 09:19:04;;;;;;;7.50;6.57;;;20.60;56.10;;;;;;4958496;28;20047;-85
2023/05/13 09:21:32;;;;;;;7.93;6.95;;;20.70;56.00;;;;;;4959889;28;20447;-86
2023/05/13 09:24:08;;;;;;;7.35;6.75;;;20.80;55.90;;;;;;4949702;28;20406;-86
2023/05/13 09:26:34;;;;;;;6.40;5.90;;;20.90;55.70;;;;;;4933354;28;20034;-83
2023/05/13 09:29:18;;;;;;;8.30;7.55;;;21.10;55.80;;;;;;4930934;28;20021;-87
2023/05/13 09:31:47;;;;;;;6.50;5.97;;;21.20;55.40;;;;;;4935674;28;20101;-88
2023/05/13 09:34:14;;;;;;;7.38;6.70;;;21.30;55.40;;;;;;4934583;28;20031;-88
2023/05/13 09:36:40;;;;;;;6.43;5.82;;;21.40;55.20;;;;;;4935279;28;20550;-88
2023/05/13 09:39:06;;;;;;;6.47;5.97;;;21.60;55.20;;;;;;4936750;28;20078;-88
2023/05/13 09:41:33;;;;;;;7.55;6.32;;;21.70;54.90;;;;;;4942879;28;20035;-86
2023/05/13 09:44:03;;;;;;;7.10;6.53;;;21.80;54.70;;;;;;4938746;28;20079;-88
2023/05/13 09:46:31;;;;;;;6.68;6.07;;;21.90;54.50;;;;;;4940193;28;20073;-86
2023/05/13 09:48:57;;;;;;;9.27;6.00;;;22.00;54.50;;;;;;4938449;28;20427;-84
2023/05/13 09:51:29;;;;;;;7.82;6.00;;;22.10;54.40;;;;;;4953415;28;20046;-86
2023/05/13 09:54:05;;;;;;;9.35;6.63;;;22.20;54.20;;;;;;4935929;28;20028;-86
2023/05/13 09:56:33;;;;;;;7.47;5.95;;;22.30;54.00;;;;;;4936888;28;20477;-85
2023/05/13 09:59:01;;;;;;;9.45;6.32;;;22.40;54.00;;;;;;4936078;28;20302;-85
2023/05/13 10:01:27;;;;;;;7.25;6.55;;;22.50;53.90;;;;;;4936468;28;20151;-84
2023/05/13 10:03:55;;;;;;;7.72;7.10;;;22.70;54.00;;;;;;4934663;28;20038;-87
2023/05/13 10:06:27;;;;;;;8.90;6.72;;;22.80;53.90;;;;;;4941167;28;20429;-84
2023/05/13 10:08:55;;;;;;;8.60;7.82;;;22.90;53.80;;;;;;4918906;29;20450;-87
2023/05/13 10:11:23;;;;;;;7.35;6.65;;;23.00;53.80;;;;;;4942555;28;20496;-84
2023/05/13 10:13:56;;;;;;;8.35;7.35;;;23.10;53.70;;;;;;4937388;28;20075;-89
2023/05/13 10:16:23;;;;;;;7.10;6.32;;;23.10;53.50;;;;;;4937799;28;20234;-84
2023/05/13 10:18:50;;;;;;;8.05;7.35;;;23.20;53.60;;;;;;4933026;28;20083;-83
2023/05/13 10:21:18;;;;;;;8.35;7.45;;;23.20;53.40;;;;;;4938343;28;20027;-88
2023/05/13 10:23:45;;;;;;;8.07;7.38;;;23.20;53.20;;;;;;4940740;28;20498;-86
2023/05/13 10:26:11;;;;;;;8.77;7.75;;;23.20;53.00;;;;;;4941188;28;20306;-85
2023/05/13 10:28:37;;;;;;;7.97;7.18;;;23.20;52.90;;;;;;4934638;28;20039;-85
2023/05/13 10:31:03;;;;;;;7.70;7.00;;;23.20;52.80;;;;;;4936978;28;20031;-85
2023/05/13 10:33:30;;;;;;;9.20;8.40;;;23.20;52.60;;;;;;4940224;28;20066;-86
2023/05/13 10:36:20;;;;;;;8.68;7.88;;;23.30;52.70;;;;;;4939231;28;20283;-85
2023/05/13 10:39:31;;;;;;;8.68;7.85;;;23.40;52.60;;;;;;4938823;28;20046;-82
2023/05/13 10:42:35;;;;;;;9.13;8.32;;;23.50;52.60;;;;;;4933405;28;20039;-83
2023/05/13 10:45:01;;;;;;;8.45;7.75;;;23.50;52.50;;;;;;4935545;28;20030;-83
2023/05/13 10:47:34;;;;;;;8.55;7.75;;;23.40;52.40;;;;;;4948493;28;20046;-85
2023/05/13 10:50:05;;;;;;;8.95;8.25;;;23.40;52.40;;;;;;4939448;28;20472;-83
2023/05/13 10:52:45;;;;;;;8.05;7.45;;;23.30;52.20;;;;;;4939706;28;20026;-85
2023/05/13 10:55:19;;;;;;;8.52;7.82;;;23.30;52.10;;;;;;4941243;28;20039;-84
2023/05/13 10:58:07;;;;;;;8.70;7.47;;;23.30;52.20;;;;;;4931287;28;20031;-84
2023/05/13 11:00:34;;;;;;;7.95;7.25;;;23.40;52.30;;;;;;4952847;28;20130;-84
2023/05/13 11:03:18;;;;;;;8.73;8.02;;;23.40;52.40;;;;;;4936617;28;20086;-83
2023/05/13 11:05:59;;;;;;;8.93;8.15;;;23.60;52.40;;;;;;4931037;28;20525;-83
2023/05/13 11:08:38;;;;;;;7.97;7.18;;;23.80;52.60;;;;;;4931037;28;20035;-83
2023/05/13 11:11:19;;;;;;;7.47;6.78;;;23.90;52.20;;;;;;4935306;28;20053;-86
2023/05/13 11:13:48;;;;;;;7.90;7.30;;;24.10;52.20;;;;;;4933621;28;20035;-86
2023/05/13 11:16:14;;;;;;;8.45;7.05;;;24.30;52.50;;;;;;4940542;28;20039;-87
2023/05/13 11:18:40;;;;;;;7.65;7.00;;;24.50;52.40;;;;;;4933887;28;20424;-86
2023/05/13 11:21:07;;;;;;;22.15;8.18;;;24.80;52.50;;;;;;4937627;28;20047;-86
2023/05/13 11:23:54;;;;;;;8.75;7.97;;;25.10;52.40;;;;;;4938208;28;20035;-84
2023/05/13 11:26:21;;;;;;;7.78;7.07;;;25.40;51.90;;;;;;4936864;28;20063;-81
2023/05/13 11:29:04;;;;;;;8.00;7.30;;;25.60;51.70;;;;;;4934074;28;20788;-82
2023/05/13 11:31:44;;;;;;;7.15;6.53;;;25.90;51.10;;;;;;4938127;28;20031;-89
2023/05/13 11:34:16;;;;;;;7.45;6.78;;;26.10;50.70;;;;;;4946864;28;20027;-82
2023/05/13 11:36:52;;;;;;;8.20;6.72;;;26.20;50.50;;;;;;4937538;28;20311;-86
2023/05/13 11:39:21;;;;;;;7.45;6.85;;;26.40;50.10;;;;;;4937541;28;20138;-85
2023/05/13 11:41:51;;;;;;;11.55;7.80;;;26.50;49.90;;;;;;4936054;28;20052;-88
2023/05/13 11:44:19;;;;;;;8.63;7.82;;;26.60;49.50;;;;;;4932868;28;20542;-80
2023/05/13 11:47:04;;;;;;;7.75;7.05;;;26.70;49.30;;;;;;4937472;28;20735;-80
2023/05/13 11:49:40;;;;;;;8.90;7.38;;;26.90;48.70;;;;;;4936196;28;20038;-80
2023/05/13 11:52:10;;;;;;;7.57;6.85;;;27.10;48.50;;;;;;4933193;28;20035;-89
2023/05/13 11:54:49;;;;;;;7.80;7.13;;;27.20;48.30;;;;;;4938289;28;20046;-86
2023/05/13 11:57:31;;;;;;;8.95;8.10;;;27.30;47.90;;;;;;4934130;28;20039;-82
2023/05/13 12:00:09;;;;;;;12.27;10.98;;;27.40;48.00;;;;;;4938166;28;20115;-88
2023/05/13 12:02:43;;;;;;;11.95;9.07;;;27.50;48.00;;;;;;4950508;28;20492;-87
2023/05/13 12:05:10;;;;;;;11.13;9.02;;;27.70;47.90;;;;;;4936506;28;20034;-91
2023/05/13 12:07:38;;;;;;;11.68;8.65;;;27.80;47.70;;;;;;4918079;29;20028;-85
2023/05/13 12:10:05;;;;;;;10.45;8.15;;;27.90;47.50;;;;;;4935188;28;20035;-89
2023/05/13 12:12:37;;;;;;;8.55;7.88;;;28.00;47.30;;;;;;4931683;28;20028;-89
2023/05/13 12:15:06;;;;;;;8.88;8.07;;;28.20;47.10;;;;;;4936434;28;20048;-91
2023/05/13 12:17:32;;;;;;;9.60;8.60;;;28.20;47.00;;;;;;4936088;28;20652;-88
2023/05/13 12:20:12;;;;;;;8.23;7.43;;;28.30;46.80;;;;;;4946151;28;20466;-96
2023/05/13 12:22:44;;;;;;;9.38;7.47;;;28.50;46.30;;;;;;4931545;29;20499;-88
2023/05/13 12:25:35;;;;;;;7.93;7.13;;;28.60;46.10;;;;;;4933801;28;20035;-83
2023/05/13 12:28:09;;;;;;;9.15;7.53;;;28.60;45.60;;;;;;4936303;28;20676;-84
2023/05/13 12:30:42;;;;;;;6.95;6.30;;;28.70;45.60;;;;;;4939590;28;20051;-83
2023/05/13 12:33:14;;;;;;;7.35;6.72;;;28.80;45.50;;;;;;4940353;28;20089;-87
2023/05/13 12:35:40;;;;;;;8.00;7.13;;;28.80;45.30;;;;;;4936882;28;20310;-86
2023/05/13 12:38:06;;;;;;;7.68;7.07;;;28.70;45.30;;;;;;4939878;28;20117;-83
2023/05/13 12:40:32;;;;;;;8.05;7.35;;;28.70;45.30;;;;;;4937366;28;20161;-88
2023/05/13 12:42:59;;;;;;;8.27;7.57;;;28.60;45.10;;;;;;4954941;28;20474;-88
2023/05/13 12:45:30;;;;;;;7.93;7.15;;;28.60;45.00;;;;;;4935522;28;20031;-89
2023/05/13 12:47:57;;;;;;;7.82;7.05;;;28.70;44.80;;;;;;4940622;28;20348;-84
2023/05/13 12:50:23;;;;;;;6.75;6.13;;;28.80;44.70;;;;;;4936119;28;20035;-87
2023/05/13 12:52:49;;;;;;;6.82;6.25;;;28.90;44.60;;;;;;4936617;28;20039;-86